createdAt,value
2023-08-01T00:04:12.354Z,18.52
2023-08-01T00:09:20.811Z,18.50
2023-08-01T00:14:29.231Z,18.50
2023-08-01T00:19:37.447Z,18.50
2023-08-01T00:24:46.325Z,18.51
2023-08-01T00:29:55.149Z,18.50
2023-08-01T00:35:03.354Z,18.51
2023-08-01T00:40:14.008Z,18.52
2023-08-01T00:45:23.353Z,18.53
2023-08-01T00:50:32.012Z,18.55
2023-08-01T00:55:41.427Z,18.55
2023-08-01T01:00:50.088Z,18.55
2023-08-01T01:06:04.909Z,18.54
2023-08-01T01:11:13.180Z,18.57
2023-08-01T01:16:21.421Z,18.58
2023-08-01T01:21:29.199Z,18.58
2023-08-01T01:26:39.349Z,18.57
2023-08-01T01:31:47.359Z,18.60
2023-08-01T01:36:56.672Z,18.60
2023-08-01T01:42:04.260Z,18.60
2023-08-01T01:47:12.106Z,18.60
2023-08-01T01:52:19.812Z,18.57
2023-08-01T01:57:27.904Z,18.55
2023-08-01T02:02:36.577Z,18.52
2023-08-01T02:07:45.306Z,18.48
2023-08-01T02:12:54.146Z,18.44
2023-08-01T02:18:02.762Z,18.40
2023-08-01T02:23:11.212Z,18.34
2023-08-01T02:28:19.504Z,18.27
2023-08-01T02:33:28.081Z,18.23
2023-08-01T02:38:37.236Z,18.18
2023-08-01T02:43:46.252Z,18.14
2023-08-01T02:48:54.943Z,18.11
2023-08-01T02:54:03.493Z,18.08
2023-08-01T02:59:12.164Z,18.06
2023-08-01T03:04:22.173Z,18.05
2023-08-01T03:09:36.783Z,18.02
2023-08-01T03:14:46.262Z,18.01
2023-08-01T03:19:54.876Z,18.00
2023-08-01T03:25:09.117Z,17.99
2023-08-01T03:30:17.959Z,17.97
2023-08-01T03:35:26.721Z,17.98
2023-08-01T03:40:35.569Z,17.98
2023-08-01T03:45:44.932Z,18.00
2023-08-01T03:50:53.587Z,18.02
2023-08-01T03:56:02.118Z,18.04
2023-08-01T04:01:10.862Z,18.05
2023-08-01T04:06:19.739Z,18.09
2023-08-01T04:11:27.463Z,18.13
2023-08-01T04:16:36.172Z,18.16
2023-08-01T04:21:43.614Z,18.20
2023-08-01T04:26:51.056Z,18.26
2023-08-01T04:31:58.545Z,18.31
2023-08-01T04:37:07.750Z,18.39
2023-08-01T04:42:16.316Z,18.46
2023-08-01T04:47:25.213Z,18.53
2023-08-01T04:52:34.058Z,18.61
2023-08-01T04:57:42.679Z,18.66
2023-08-01T05:02:51.852Z,18.71
2023-08-01T05:08:00.926Z,18.75
2023-08-01T05:13:09.317Z,18.79
2023-08-01T05:18:18.908Z,18.82
2023-08-01T05:23:27.482Z,18.84
2023-08-01T05:28:36.395Z,18.93
2023-08-01T05:33:44.861Z,18.98
2023-08-01T05:38:53.779Z,19.03
2023-08-01T05:44:03.127Z,19.07
2023-08-01T05:49:11.830Z,19.11
2023-08-01T05:54:20.258Z,19.18
2023-08-01T05:59:28.471Z,19.26
2023-08-01T06:04:37.368Z,19.32
2023-08-01T06:09:46.168Z,19.36
2023-08-01T06:14:53.876Z,19.40
2023-08-01T06:20:01.297Z,19.44
2023-08-01T06:25:09.894Z,19.49
2023-08-01T06:30:18.291Z,19.52
2023-08-01T06:35:26.808Z,19.48
2023-08-01T06:40:35.599Z,19.55
2023-08-01T06:45:44.288Z,19.62
2023-08-01T06:50:52.701Z,19.66
2023-08-01T06:56:01.154Z,19.68
2023-08-01T07:01:09.679Z,19.73
2023-08-01T07:06:18.768Z,19.77
2023-08-01T07:11:26.700Z,19.84
2023-08-01T07:16:34.215Z,19.86
2023-08-01T07:21:42.522Z,19.91
2023-08-01T07:26:51.163Z,19.97
2023-08-01T07:31:59.487Z,20.02
2023-08-01T07:37:07.486Z,20.08
2023-08-01T07:42:15.576Z,20.14
2023-08-01T07:47:25.424Z,20.21
2023-08-01T07:52:33.875Z,20.31
2023-08-01T07:57:41.335Z,20.41
2023-08-01T08:02:52.967Z,20.51
2023-08-01T08:07:59.680Z,20.59
2023-08-01T08:13:07.759Z,20.66
2023-08-01T08:18:16.245Z,20.71
2023-08-01T08:23:25.569Z,20.79
2023-08-01T08:28:37.316Z,20.85
2023-08-01T08:33:45.986Z,20.90
2023-08-01T08:38:54.231Z,20.95
2023-08-01T08:44:04.234Z,21.01
2023-08-01T08:49:13.365Z,21.05
2023-08-01T08:54:22.753Z,21.14
2023-08-01T08:59:32.424Z,21.21
2023-08-01T09:04:40.393Z,21.29
2023-08-01T09:09:49.537Z,21.35
2023-08-01T09:15:01.914Z,21.44
2023-08-01T09:20:14.364Z,21.52
2023-08-01T09:25:22.897Z,21.59
2023-08-01T09:30:33.244Z,21.66
2023-08-01T09:35:45.950Z,21.73
2023-08-01T09:40:55.193Z,21.78
2023-08-01T09:46:02.735Z,21.82
2023-08-01T09:51:13.748Z,21.88
2023-08-01T09:56:23.897Z,21.93
2023-08-01T10:01:34.676Z,21.97
2023-08-01T10:06:50.612Z,22.02
2023-08-01T10:11:59.793Z,22.06
2023-08-01T10:17:11.531Z,22.14
2023-08-01T10:22:20.565Z,22.18
2023-08-01T10:27:29.055Z,22.26
2023-08-01T10:32:39.249Z,22.29
2023-08-01T10:37:48.902Z,22.29
2023-08-01T10:42:56.938Z,22.30
2023-08-01T10:48:15.413Z,22.30
2023-08-01T10:53:23.126Z,22.29
2023-08-01T10:58:33.271Z,22.28
2023-08-01T11:03:43.719Z,22.25
2023-08-01T11:08:51.427Z,22.23
2023-08-01T11:13:59.291Z,22.19
2023-08-01T11:19:07.044Z,22.14
2023-08-01T11:24:15.136Z,22.11
2023-08-01T11:29:25.846Z,22.06
2023-08-01T11:34:48.013Z,21.99
2023-08-01T11:39:59.733Z,21.92
2023-08-01T11:45:19.045Z,21.82
2023-08-01T11:50:30.740Z,21.73
2023-08-01T11:55:40.639Z,21.62
2023-08-01T12:00:50.174Z,21.52
2023-08-01T12:06:09.365Z,21.42
2023-08-01T12:11:29.507Z,21.32
2023-08-01T12:16:38.649Z,21.19
2023-08-01T12:21:47.202Z,21.09
2023-08-01T12:26:55.712Z,20.98
2023-08-01T12:32:04.613Z,20.87
2023-08-01T12:37:14.269Z,20.75
2023-08-01T12:42:22.368Z,20.63
2023-08-01T12:47:29.921Z,20.54
2023-08-01T12:52:38.324Z,20.43
2023-08-01T12:57:47.600Z,20.32
2023-08-01T13:02:55.977Z,20.22
2023-08-01T13:08:04.417Z,20.14
2023-08-01T13:13:11.706Z,20.07
2023-08-01T13:18:20.445Z,20.03
2023-08-01T13:23:29.786Z,20.01
2023-08-01T13:28:38.132Z,19.97
2023-08-01T13:33:47.488Z,19.94
2023-08-01T13:38:56.637Z,19.91
2023-08-01T13:44:04.465Z,19.91
2023-08-01T13:49:14.948Z,19.93
2023-08-01T13:54:22.851Z,19.95
2023-08-01T13:59:31.232Z,19.99
2023-08-01T14:04:39.294Z,20.03
2023-08-01T14:09:47.568Z,20.08
2023-08-01T14:14:56.691Z,20.13
2023-08-01T14:20:07.411Z,20.21
2023-08-01T14:25:15.347Z,20.29
2023-08-01T14:30:23.163Z,20.40
2023-08-01T14:35:30.743Z,20.47
2023-08-01T14:40:43.350Z,20.54
2023-08-01T14:45:53.981Z,20.64
2023-08-01T14:51:02.493Z,20.75
2023-08-01T14:56:13.097Z,20.84
2023-08-01T15:01:21.461Z,20.93
2023-08-01T15:06:29.132Z,21.00
2023-08-01T15:11:37.840Z,21.06
2023-08-01T15:16:46.512Z,21.15
2023-08-01T15:21:56.341Z,21.21
2023-08-01T15:27:05.009Z,21.26
2023-08-01T15:32:14.384Z,21.33
2023-08-01T15:37:22.932Z,21.39
2023-08-01T15:42:32.555Z,21.45
2023-08-01T15:47:40.871Z,21.51
2023-08-01T15:52:49.473Z,21.54
2023-08-01T15:57:57.762Z,21.59
2023-08-01T16:03:07.648Z,21.63
2023-08-01T16:08:16.489Z,21.67
2023-08-01T16:13:25.836Z,21.68
2023-08-01T16:18:34.321Z,21.69
2023-08-01T16:23:42.898Z,21.71
2023-08-01T16:28:51.401Z,21.71
2023-08-01T16:34:01.169Z,21.71
2023-08-01T16:39:09.760Z,21.70
2023-08-01T16:44:18.649Z,21.73
2023-08-01T16:49:27.479Z,21.71
2023-08-01T16:54:36.855Z,21.70
2023-08-01T16:59:45.632Z,21.64
2023-08-01T17:04:54.221Z,21.58
2023-08-01T17:10:06.089Z,21.55
2023-08-01T17:15:15.112Z,21.50
2023-08-01T17:20:25.509Z,21.45
2023-08-01T17:25:33.787Z,21.38
2023-08-01T17:30:43.801Z,21.32
2023-08-01T17:35:53.171Z,21.22
2023-08-01T17:41:07.733Z,21.11
2023-08-01T17:46:15.427Z,21.03
2023-08-01T17:51:23.523Z,20.93
2023-08-01T17:56:31.400Z,20.84
2023-08-01T18:01:39.422Z,20.73
2023-08-01T18:06:47.779Z,20.61
2023-08-01T18:11:55.686Z,20.52
2023-08-01T18:17:03.477Z,20.43
2023-08-01T18:22:11.580Z,20.34
2023-08-01T18:27:19.751Z,20.27
2023-08-01T18:32:27.708Z,20.16
2023-08-01T18:37:37.465Z,20.03
2023-08-01T18:42:45.815Z,19.87
2023-08-01T18:47:55.260Z,19.67
2023-08-01T18:53:02.984Z,19.50
2023-08-01T18:58:11.589Z,19.33
2023-08-01T19:03:20.418Z,19.16
2023-08-01T19:08:30.594Z,18.99
2023-08-01T19:13:39.202Z,18.87
2023-08-01T19:18:47.470Z,18.74
2023-08-01T19:23:56.903Z,18.63
2023-08-01T19:29:06.087Z,18.52
2023-08-01T19:34:14.981Z,18.42
2023-08-01T19:39:23.596Z,18.33
2023-08-01T19:44:34.153Z,18.28
2023-08-01T19:49:43.552Z,18.23
2023-08-01T19:54:52.973Z,18.18
2023-08-01T20:00:00.604Z,18.15
2023-08-01T20:05:08.733Z,18.13
2023-08-01T20:10:16.880Z,18.14
2023-08-01T20:15:24.301Z,18.14
2023-08-01T20:20:32.858Z,18.15
2023-08-01T20:25:41.998Z,18.15
2023-08-01T20:30:50.495Z,18.16
2023-08-01T20:36:07.544Z,18.18
2023-08-01T20:41:19.204Z,18.15
2023-08-01T20:46:27.465Z,18.07
2023-08-01T20:51:35.592Z,18.15
2023-08-01T20:56:43.850Z,18.13
2023-08-01T21:01:52.879Z,18.10
2023-08-01T21:07:01.468Z,18.10
2023-08-01T21:12:12.113Z,18.09
2023-08-01T21:17:21.254Z,18.10
2023-08-01T21:22:30.604Z,18.08
2023-08-01T21:27:39.811Z,18.06
2023-08-01T21:32:48.888Z,18.04
2023-08-01T21:37:57.392Z,18.02
2023-08-01T21:43:06.072Z,17.97
2023-08-01T21:48:14.704Z,17.94
2023-08-01T21:53:23.115Z,17.90
2023-08-01T21:58:32.058Z,17.86
2023-08-01T22:03:40.667Z,17.83
2023-08-01T22:08:49.069Z,17.78
2023-08-01T22:13:57.956Z,17.76
2023-08-01T22:19:06.327Z,17.73
2023-08-01T22:24:15.162Z,17.70
2023-08-01T22:29:24.028Z,17.65
2023-08-01T22:34:31.709Z,17.61
2023-08-01T22:39:39.300Z,17.56
2023-08-01T22:44:46.721Z,17.51
2023-08-01T22:50:04.796Z,17.47
2023-08-01T22:55:15.432Z,17.44
2023-08-01T23:00:23.177Z,17.41
2023-08-01T23:05:32.392Z,17.42
2023-08-01T23:10:44.752Z,17.42
2023-08-01T23:15:54.235Z,17.42
2023-08-01T23:21:03.662Z,17.43
2023-08-01T23:26:13.099Z,17.44
2023-08-01T23:31:21.757Z,17.47
2023-08-01T23:36:30.408Z,17.48
2023-08-01T23:41:39.067Z,17.49
2023-08-01T23:46:46.458Z,17.48
2023-08-01T23:51:54.108Z,17.49
2023-08-01T23:57:02.564Z,17.49
